Terminal Aerodrome Forecast
Issued by NWS

Home | Current Version | Previous Version | Text Only | Print | Product List | Glossary Off
Versions: 1 2 3 4 5 6 7 8 9 10 11 12 13 14 15 16 17 18 19 20 21 22 23

000
FTUS43 KBIS 220520
TAFDIK
TAF
KDIK 220520Z 2206/2306 19006KT P6SM SCT250
     FM221500 25011KT P6SM FEW045
     FM230100 03008KT P6SM FEW060
     FM230300 08009KT P6SM FEW050=

USA.gov is the U.S. government's official web portal to all federal, state and local government web resources and services.